Dubai Express — VRBN8 — position and weather

sailwx.info

Track history (hours):
 
Tides and Currents Weather Stations Pressure Air Temp Water Temp Dewpoint Dewpoint Depression Visibility Wind Speed Wind Dir Waves Ship Positions

Dubai Express

Last reported at 2018-Jun-19 00:49 UTC. Time now 2018-Jun-19 17:49 UTC.
Position N 36°10' W 005°23'.

Type: Cargo ship. MMSI: 477097400.

Date/timePositionNaut miles runAvg speedWind from/ knotsBaromVisibWave heightAir tempDewpointWater temp
2018-Jun-19 00:49N 36°10' W 005°23'0 0.0
2018-Jun-18 05:49N 36°10' W 005°23'0 0.1
2018-Jun-18 05:19N 36°10' W 005°23'0 0.1
2018-Jun-18 04:43N 36°10' W 005°23'0 0.0
2018-Jun-18 02:18N 36°10' W 005°23'0 0.1
2018-Jun-18 01:54N 36°10' W 005°23'0 0.0
2018-Jun-18 01:30N 36°10' W 005°23'0 0.0
2018-Jun-18 01:00N 36°10' W 005°23'0 0.0
2018-Jun-18 00:24N 36°10' W 005°23'0 0.0
2018-Jun-17 22:48N 36°10' W 005°23'1 1.4
2018-Jun-17 21:59N 36°09' W 005°24'3 6.8
2018-Jun-17 21:30N 36°06' W 005°22'3 6.9
2018-Jun-17 21:00N 36°06' W 005°18'1 1.3
2018-Jun-17 20:30N 36°06' W 005°19'1 2.9
2018-Jun-17 20:00N 36°06' W 005°17'3 5.1
2018-Jun-17 19:30N 36°06' W 005°14'610.2
2018-Jun-17 18:58N 36°09' W 005°08'0 0.9
2018-Jun-17 18:29N 36°09' W 005°07'2 2.6
2018-Jun-17 17:48N 36°08' W 005°09'1 2.6
2018-Jun-17 17:22N 36°08' W 005°10'1 2.3
2018-Jun-17 16:55N 36°07' W 005°11'1 1.2
2018-Jun-17 16:30N 36°06' W 005°12'1 0.7
2018-Jun-17 15:11N 36°06' W 005°11'0 1.1
2018-Jun-17 14:56N 36°06' W 005°11'0 0.2
2018-Jun-17 14:29N 36°06' W 005°11'0 0.6
2018-Jun-17 14:00N 36°06' W 005°11'0 0.5
2018-Jun-17 13:30N 36°06' W 005°11'0 0.4
2018-Jun-17 13:00N 36°07' W 005°11'0 0.5
2018-Jun-17 12:30N 36°07' W 005°11'0 0.7
2018-Jun-17 12:00N 36°07' W 005°11'0 0.6
2018-Jun-17 11:30N 36°08' W 005°11'0 0.4
2018-Jun-17 11:00N 36°08' W 005°11'0 0.5
2018-Jun-17 10:14N 36°08' W 005°12'0 0.6
2018-Jun-17 09:59N 36°08' W 005°12'0 0.6
2018-Jun-17 09:23N 36°08' W 005°12'0 0.9
2018-Jun-17 08:52N 36°08' W 005°13'0 0.5
2018-Jun-17 08:22N 36°08' W 005°13'0 0.5
2018-Jun-17 08:00N 36°07' W 005°13'0 0.6
2018-Jun-17 07:24N 36°07' W 005°13'3 5.9
2018-Jun-17 06:58N 36°06' W 005°16'4 9.0
2018-Jun-17 06:30N 36°05' W 005°21'2 5.0
2018-Jun-17 06:00N 36°03' W 005°21'612.9
2018-Jun-17 05:30N 35°58' W 005°27'2313.4
2018-Jun-17 03:48N 35°53' W 005°54'58514.5
2018-Jun-15 11:28N 28°22' W 013°15'814.7
2018-Jun-15 10:56N 28°16' W 013°19'614.8
2018-Jun-15 10:30N 28°10' W 013°23'1314.7
2018-Jun-15 09:35N 27°59' W 013°31'114.8
2018-Jun-15 09:29N 27°58' W 013°32'814.9
2018-Jun-15 08:59N 27°52' W 013°38'2214.8
2018-Jun-15 07:30N 27°35' W 013°54'  
2018-Jun-13 00:00N 16°12' W 021°42'51914.8 030 / 201020.310.8 22.018.9
2018-Jun-11 13:00N 09°30' W 027°18'72615.8 040 / 181020.227.0 27.021.027.0
2018-Jun-09 15:00N 00°24' W 035°18'   110 / 151020.227.0 32.028.1
Track history (hours):
 
Tides and Currents Weather Stations Pressure Air Temp Water Temp Dewpoint Dewpoint Depression Visibility Wind Speed Wind Dir Waves Ship Positions

Dubai Express

Last reported at 2018-Jun-19 00:49 UTC. Time now 2018-Jun-19 17:49 UTC.
Position N 36°10' W 005°23'.

Type: Cargo ship. MMSI: 477097400.

Date/timePositionNaut miles runAvg speedWind from/ knotsBaromVisibWave heightAir tempDewpointWater temp
2018-Jun-19 00:49N 36°10' W 005°23'0 0.0
2018-Jun-18 05:49N 36°10' W 005°23'0 0.1
2018-Jun-18 05:19N 36°10' W 005°23'0 0.1
2018-Jun-18 04:43N 36°10' W 005°23'0 0.0
2018-Jun-18 02:18N 36°10' W 005°23'0 0.1
2018-Jun-18 01:54N 36°10' W 005°23'0 0.0
2018-Jun-18 01:30N 36°10' W 005°23'0 0.0
2018-Jun-18 01:00N 36°10' W 005°23'0 0.0
2018-Jun-18 00:24N 36°10' W 005°23'0 0.0
2018-Jun-17 22:48N 36°10' W 005°23'1 1.4
2018-Jun-17 21:59N 36°09' W 005°24'3 6.8
2018-Jun-17 21:30N 36°06' W 005°22'3 6.9
2018-Jun-17 21:00N 36°06' W 005°18'1 1.3
2018-Jun-17 20:30N 36°06' W 005°19'1 2.9
2018-Jun-17 20:00N 36°06' W 005°17'3 5.1
2018-Jun-17 19:30N 36°06' W 005°14'610.2
2018-Jun-17 18:58N 36°09' W 005°08'0 0.9
2018-Jun-17 18:29N 36°09' W 005°07'2 2.6
2018-Jun-17 17:48N 36°08' W 005°09'1 2.6
2018-Jun-17 17:22N 36°08' W 005°10'1 2.3
2018-Jun-17 16:55N 36°07' W 005°11'1 1.2
2018-Jun-17 16:30N 36°06' W 005°12'1 0.7
2018-Jun-17 15:11N 36°06' W 005°11'0 1.1
2018-Jun-17 14:56N 36°06' W 005°11'0 0.2
2018-Jun-17 14:29N 36°06' W 005°11'0 0.6
2018-Jun-17 14:00N 36°06' W 005°11'0 0.5
2018-Jun-17 13:30N 36°06' W 005°11'0 0.4
2018-Jun-17 13:00N 36°07' W 005°11'0 0.5
2018-Jun-17 12:30N 36°07' W 005°11'0 0.7
2018-Jun-17 12:00N 36°07' W 005°11'0 0.6
2018-Jun-17 11:30N 36°08' W 005°11'0 0.4
2018-Jun-17 11:00N 36°08' W 005°11'0 0.5
2018-Jun-17 10:14N 36°08' W 005°12'0 0.6
2018-Jun-17 09:59N 36°08' W 005°12'0 0.6
2018-Jun-17 09:23N 36°08' W 005°12'0 0.9
2018-Jun-17 08:52N 36°08' W 005°13'0 0.5
2018-Jun-17 08:22N 36°08' W 005°13'0 0.5
2018-Jun-17 08:00N 36°07' W 005°13'0 0.6
2018-Jun-17 07:24N 36°07' W 005°13'3 5.9
2018-Jun-17 06:58N 36°06' W 005°16'4 9.0
2018-Jun-17 06:30N 36°05' W 005°21'2 5.0
2018-Jun-17 06:00N 36°03' W 005°21'612.9
2018-Jun-17 05:30N 35°58' W 005°27'2313.4
2018-Jun-17 03:48N 35°53' W 005°54'58514.5
2018-Jun-15 11:28N 28°22' W 013°15'814.7
2018-Jun-15 10:56N 28°16' W 013°19'614.8
2018-Jun-15 10:30N 28°10' W 013°23'1314.7
2018-Jun-15 09:35N 27°59' W 013°31'114.8
2018-Jun-15 09:29N 27°58' W 013°32'814.9
2018-Jun-15 08:59N 27°52' W 013°38'2214.8
2018-Jun-15 07:30N 27°35' W 013°54'  
2018-Jun-13 00:00N 16°12' W 021°42'51914.8 030 / 201020.310.8 22.018.9
2018-Jun-11 13:00N 09°30' W 027°18'72615.8 040 / 181020.227.0 27.021.027.0
2018-Jun-09 15:00N 00°24' W 035°18'   110 / 151020.227.0 32.028.1

Dump ship's entire track history